createdAt,value
2023-01-04T00:01:59.750Z,27.00
2023-01-04T00:04:42.668Z,24.70
2023-01-04T00:10:08.839Z,19.80
2023-01-04T00:12:52.070Z,21.60
2023-01-04T00:15:35.294Z,23.70
2023-01-04T00:18:18.171Z,24.00
2023-01-04T00:23:57.767Z,21.10
2023-01-04T00:26:40.679Z,21.80
2023-01-04T00:29:24.743Z,23.10
2023-01-04T00:32:08.608Z,23.10
2023-01-04T00:34:51.560Z,23.40
2023-01-04T00:37:34.441Z,22.70
2023-01-04T00:43:00.160Z,23.50
2023-01-04T00:48:28.611Z,22.80
2023-01-04T00:51:11.429Z,23.30
2023-01-04T00:56:37.070Z,25.00
2023-01-04T01:02:04.093Z,23.20
2023-01-04T01:04:47.004Z,23.70
2023-01-04T01:10:12.653Z,25.70
2023-01-04T01:15:38.285Z,23.90
2023-01-04T01:21:12.590Z,26.10
2023-01-04T01:23:56.227Z,25.80
2023-01-04T01:26:39.055Z,27.00
2023-01-04T01:32:04.948Z,27.80
2023-01-04T01:34:47.782Z,31.30
2023-01-04T01:40:13.619Z,32.40
2023-01-04T01:42:56.457Z,32.40
2023-01-04T01:45:39.550Z,31.60
2023-01-04T01:48:29.840Z,29.50
2023-01-04T01:51:16.735Z,31.00
2023-01-04T01:54:07.870Z,28.80
2023-01-04T01:56:51.880Z,28.80
2023-01-04T01:59:38.694Z,28.80
2023-01-04T02:02:22.824Z,29.50
2023-01-04T02:05:06.323Z,28.50
2023-01-04T02:07:50.475Z,29.10
2023-01-04T02:10:34.052Z,29.60
2023-01-04T02:13:25.245Z,32.20
2023-01-04T02:16:18.956Z,32.60
2023-01-04T02:19:35.460Z,33.10
2023-01-04T02:22:45.434Z,35.10
2023-01-04T02:26:05.663Z,35.90
2023-01-04T02:29:25.530Z,34.10
2023-01-04T02:32:53.801Z,32.20
2023-01-04T02:35:51.989Z,34.50
2023-01-04T02:39:11.595Z,34.60
2023-01-04T02:42:06.367Z,32.60
2023-01-04T02:44:58.976Z,32.80
2023-01-04T02:48:02.270Z,35.10
2023-01-04T02:53:54.264Z,31.00
2023-01-04T02:56:43.062Z,34.20
2023-01-04T02:59:37.964Z,34.60
2023-01-04T03:03:04.324Z,33.10
2023-01-04T03:06:15.995Z,33.10
2023-01-04T03:09:19.849Z,31.00
2023-01-04T03:12:29.581Z,32.50
2023-01-04T03:15:23.928Z,29.00
2023-01-04T03:18:15.816Z,31.20
2023-01-04T03:21:01.663Z,31.60
2023-01-04T03:24:05.880Z,28.70
2023-01-04T03:27:12.399Z,30.90
2023-01-04T03:30:20.969Z,31.00
2023-01-04T03:33:27.894Z,30.50
2023-01-04T03:36:24.543Z,28.30
2023-01-04T03:39:47.436Z,30.10
2023-01-04T03:43:06.161Z,30.50
2023-01-04T03:46:13.813Z,31.00
2023-01-04T03:49:18.262Z,29.80
2023-01-04T03:52:04.045Z,30.40
2023-01-04T03:54:49.120Z,29.60
2023-01-04T03:57:33.659Z,29.90
2023-01-04T04:00:21.594Z,30.60
2023-01-04T04:03:08.723Z,31.60
2023-01-04T04:06:10.324Z,29.80
2023-01-04T04:08:53.110Z,27.40
2023-01-04T04:14:18.617Z,28.80
2023-01-04T04:17:01.621Z,29.60
2023-01-04T04:19:44.544Z,29.60
2023-01-04T04:25:10.231Z,29.50
2023-01-04T04:27:53.074Z,28.00
2023-01-04T04:30:36.233Z,25.20
2023-01-04T04:33:19.105Z,27.90
2023-01-04T04:38:44.786Z,26.60
2023-01-04T04:44:22.799Z,24.70
2023-01-04T04:49:48.377Z,24.20
2023-01-04T04:52:31.230Z,27.90
2023-01-04T04:57:57.768Z,24.90
2023-01-04T05:00:41.413Z,25.90
2023-01-04T05:03:24.363Z,25.40
2023-01-04T05:06:07.630Z,25.80
2023-01-04T05:08:50.466Z,26.30
2023-01-04T05:14:34.663Z,22.80
2023-01-04T05:20:00.270Z,23.00
2023-01-04T05:22:43.571Z,22.50
2023-01-04T05:25:26.703Z,23.30
2023-01-04T05:28:10.619Z,25.30
2023-01-04T05:30:55.632Z,25.90
2023-01-04T05:33:38.699Z,26.80
2023-01-04T05:39:04.176Z,24.60
2023-01-04T05:42:05.454Z,23.60
2023-01-04T05:44:48.294Z,23.30
2023-01-04T05:50:13.901Z,21.00
2023-01-04T05:55:39.438Z,21.90
2023-01-04T06:01:07.648Z,20.90
2023-01-04T06:03:50.843Z,23.00
2023-01-04T06:06:33.962Z,21.50
2023-01-04T06:09:16.855Z,21.70
2023-01-04T06:14:42.630Z,21.00
2023-01-04T06:20:09.820Z,21.60
2023-01-04T06:22:52.699Z,24.80
2023-01-04T06:28:18.199Z,22.80
2023-01-04T06:33:47.679Z,20.50
2023-01-04T06:36:31.123Z,22.30
2023-01-04T06:39:13.907Z,23.50
2023-01-04T06:42:03.771Z,23.70
2023-01-04T06:44:48.864Z,22.20
2023-01-04T06:50:14.436Z,21.30
2023-01-04T06:55:40.035Z,21.60
2023-01-04T06:58:22.862Z,23.90
2023-01-04T07:03:49.303Z,22.60
2023-01-04T07:09:14.903Z,21.10
2023-01-04T07:17:29.746Z,19.20
2023-01-04T07:20:12.813Z,22.00
2023-01-04T07:25:39.282Z,19.40
2023-01-04T07:28:40.455Z,21.40
2023-01-04T07:31:23.288Z,21.90
